sensor_id;sensor_type;location;lat;lon;timestamp;pressure;altitude;pressure_sealevel;temperature;humidity
42859;BME280;28505;56.970;40.998;2023-04-27T00:00:35;99000.00;;;11.27;100.00
42859;BME280;28505;56.970;40.998;2023-04-27T00:05:59;99005.88;;;11.29;100.00
42859;BME280;28505;56.970;40.998;2023-04-27T00:11:22;99010.16;;;11.30;100.00
42859;BME280;28505;56.970;40.998;2023-04-27T00:16:45;99019.53;;;11.23;100.00
42859;BME280;28505;56.970;40.998;2023-04-27T00:22:07;99038.41;;;11.32;100.00
42859;BME280;28505;56.970;40.998;2023-04-27T00:27:30;99044.88;;;11.31;100.00
42859;BME280;28505;56.970;40.998;2023-04-27T00:32:54;99048.56;;;11.27;100.00
42859;BME280;28505;56.970;40.998;2023-04-27T00:38:16;99047.75;;;11.26;100.00
42859;BME280;28505;56.970;40.998;2023-04-27T00:43:42;99055.06;;;11.25;100.00
42859;BME280;28505;56.970;40.998;2023-04-27T00:49:05;99053.47;;;11.24;100.00
42859;BME280;28505;56.970;40.998;2023-04-27T00:54:28;99050.94;;;11.19;100.00
42859;BME280;28505;56.970;40.998;2023-04-27T00:59:51;99062.88;;;11.18;100.00
42859;BME280;28505;56.970;40.998;2023-04-27T01:05:13;99060.47;;;11.17;100.00
42859;BME280;28505;56.970;40.998;2023-04-27T01:10:39;99065.38;;;11.15;100.00
42859;BME280;28505;56.970;40.998;2023-04-27T01:16:03;99052.84;;;11.01;100.00
42859;BME280;28505;56.970;40.998;2023-04-27T01:21:26;99071.75;;;11.10;100.00
42859;BME280;28505;56.970;40.998;2023-04-27T01:26:48;99069.69;;;11.07;100.00
42859;BME280;28505;56.970;40.998;2023-04-27T01:32:12;99072.22;;;11.04;100.00
42859;BME280;28505;56.970;40.998;2023-04-27T01:37:35;99080.63;;;11.02;100.00
42859;BME280;28505;56.970;40.998;2023-04-27T01:42:57;99082.06;;;10.99;100.00
42859;BME280;28505;56.970;40.998;2023-04-27T01:48:21;99080.78;;;10.97;100.00
42859;BME280;28505;56.970;40.998;2023-04-27T01:53:43;99105.06;;;10.97;100.00
42859;BME280;28505;56.970;40.998;2023-04-27T01:59:05;99098.38;;;10.94;100.00
42859;BME280;28505;56.970;40.998;2023-04-27T02:04:30;99111.25;;;10.97;100.00
42859;BME280;28505;56.970;40.998;2023-04-27T02:09:52;99111.25;;;10.97;100.00
42859;BME280;28505;56.970;40.998;2023-04-27T02:15:15;99129.97;;;11.02;100.00
42859;BME280;28505;56.970;40.998;2023-04-27T02:20:37;99121.22;;;10.97;100.00
42859;BME280;28505;56.970;40.998;2023-04-27T02:25:59;99115.53;;;10.90;100.00
42859;BME280;28505;56.970;40.998;2023-04-27T02:31:25;99136.78;;;11.00;100.00
42859;BME280;28505;56.970;40.998;2023-04-27T02:36:47;99128.22;;;10.89;100.00
42859;BME280;28505;56.970;40.998;2023-04-27T02:42:10;99141.84;;;10.93;100.00
42859;BME280;28505;56.970;40.998;2023-04-27T02:47:33;99139.94;;;10.93;100.00
42859;BME280;28505;56.970;40.998;2023-04-27T02:52:56;99149.63;;;10.94;100.00
42859;BME280;28505;56.970;40.998;2023-04-27T02:58:18;99161.19;;;10.95;100.00
42859;BME280;28505;56.970;40.998;2023-04-27T03:03:41;99186.13;;;11.00;100.00
42859;BME280;28505;56.970;40.998;2023-04-27T03:09:06;99185.34;;;11.00;100.00
42859;BME280;28505;56.970;40.998;2023-04-27T03:14:29;99198.19;;;11.03;100.00
42859;BME280;28505;56.970;40.998;2023-04-27T03:19:52;99191.03;;;10.98;100.00
42859;BME280;28505;56.970;40.998;2023-04-27T03:25:17;99206.94;;;11.09;100.00
42859;BME280;28505;56.970;40.998;2023-04-27T03:30:39;99203.59;;;11.03;100.00
42859;BME280;28505;56.970;40.998;2023-04-27T03:36:02;99213.59;;;11.11;100.00
42859;BME280;28505;56.970;40.998;2023-04-27T03:41:26;99210.25;;;11.14;100.00
42859;BME280;28505;56.970;40.998;2023-04-27T03:46:48;99212.78;;;11.11;100.00
42859;BME280;28505;56.970;40.998;2023-04-27T03:52:10;99213.75;;;11.15;100.00
42859;BME280;28505;56.970;40.998;2023-04-27T03:57:33;99213.13;;;11.18;100.00
42859;BME280;28505;56.970;40.998;2023-04-27T04:02:55;99222.50;;;11.20;100.00
42859;BME280;28505;56.970;40.998;2023-04-27T04:08:18;99228.22;;;11.28;100.00
42859;BME280;28505;56.970;40.998;2023-04-27T04:13:54;99243.00;;;11.39;100.00
42859;BME280;28505;56.970;40.998;2023-04-27T04:19:16;99263.97;;;11.51;100.00
42859;BME280;28505;56.970;40.998;2023-04-27T04:24:42;99268.56;;;11.50;100.00
42859;BME280;28505;56.970;40.998;2023-04-27T04:30:05;99272.53;;;11.53;100.00
42859;BME280;28505;56.970;40.998;2023-04-27T04:35:29;99281.44;;;11.62;100.00
42859;BME280;28505;56.970;40.998;2023-04-27T04:40:53;99291.16;;;11.71;100.00
42859;BME280;28505;56.970;40.998;2023-04-27T04:46:15;99295.75;;;11.71;100.00
42859;BME280;28505;56.970;40.998;2023-04-27T04:51:41;99298.28;;;11.67;100.00
42859;BME280;28505;56.970;40.998;2023-04-27T04:57:05;99303.06;;;11.62;100.00
42859;BME280;28505;56.970;40.998;2023-04-27T05:02:28;99312.25;;;11.69;100.00
42859;BME280;28505;56.970;40.998;2023-04-27T05:07:51;99319.09;;;11.76;100.00
42859;BME280;28505;56.970;40.998;2023-04-27T05:13:12;99332.19;;;11.91;100.00
42859;BME280;28505;56.970;40.998;2023-04-27T05:18:34;99322.50;;;12.07;100.00
42859;BME280;28505;56.970;40.998;2023-04-27T05:23:57;99331.06;;;12.27;100.00
42859;BME280;28505;56.970;40.998;2023-04-27T05:29:21;99331.81;;;12.36;100.00
42859;BME280;28505;56.970;40.998;2023-04-27T10:02:23;99509.16;;;16.98;100.00
42859;BME280;28505;56.970;40.998;2023-04-27T10:07:51;99509.38;;;17.05;100.00
42859;BME280;28505;56.970;40.998;2023-04-27T10:13:24;99496.81;;;17.16;100.00
42859;BME280;28505;56.970;40.998;2023-04-27T10:18:54;99509.31;;;16.89;100.00
42859;BME280;28505;56.970;40.998;2023-04-27T10:24:17;99499.88;;;16.58;100.00
42859;BME280;28505;56.970;40.998;2023-04-27T10:29:42;99489.66;;;16.55;100.00
42859;BME280;28505;56.970;40.998;2023-04-27T10:35:07;99494.94;;;16.64;100.00
42859;BME280;28505;56.970;40.998;2023-04-27T10:40:32;99508.41;;;17.13;100.00
42859;BME280;28505;56.970;40.998;2023-04-27T10:46:10;99505.59;;;17.53;100.00
42859;BME280;28505;56.970;40.998;2023-04-27T10:51:33;99498.53;;;17.68;100.00
42859;BME280;28505;56.970;40.998;2023-04-27T10:57:06;99501.03;;;18.05;100.00
42859;BME280;28505;56.970;40.998;2023-04-27T11:02:29;99514.44;;;18.30;100.00
42859;BME280;28505;56.970;40.998;2023-04-27T11:07:51;99523.50;;;18.18;100.00
42859;BME280;28505;56.970;40.998;2023-04-27T11:13:15;99522.66;;;18.14;100.00
42859;BME280;28505;56.970;40.998;2023-04-27T11:18:38;99519.84;;;17.78;100.00
42859;BME280;28505;56.970;40.998;2023-04-27T11:24:05;99531.34;;;17.56;100.00
42859;BME280;28505;56.970;40.998;2023-04-27T11:29:36;99531.66;;;17.39;100.00
42859;BME280;28505;56.970;40.998;2023-04-27T11:35:00;99526.31;;;17.42;100.00
42859;BME280;28505;56.970;40.998;2023-04-27T11:40:23;99531.34;;;17.56;100.00
42859;BME280;28505;56.970;40.998;2023-04-27T11:45:45;99523.28;;;17.91;100.00
42859;BME280;28505;56.970;40.998;2023-04-27T11:51:09;99525.53;;;18.21;100.00
42859;BME280;28505;56.970;40.998;2023-04-27T11:56:40;99533.56;;;17.98;100.00
42859;BME280;28505;56.970;40.998;2023-04-27T12:02:02;99527.69;;;18.12;100.00
42859;BME280;28505;56.970;40.998;2023-04-27T12:07:25;99526.03;;;18.42;100.00
42859;BME280;28505;56.970;40.998;2023-04-27T12:12:48;99520.75;;;18.69;100.00
42859;BME280;28505;56.970;40.998;2023-04-27T12:18:10;99532.63;;;18.77;100.00
42859;BME280;28505;56.970;40.998;2023-04-27T12:23:35;99524.69;;;18.52;100.00
42859;BME280;28505;56.970;40.998;2023-04-27T12:28:58;99528.91;;;18.49;100.00
42859;BME280;28505;56.970;40.998;2023-04-27T12:34:20;99509.47;;;18.51;100.00
42859;BME280;28505;56.970;40.998;2023-04-27T12:39:43;99521.38;;;18.62;100.00
42859;BME280;28505;56.970;40.998;2023-04-27T12:45:06;99509.59;;;18.74;100.00
42859;BME280;28505;56.970;40.998;2023-04-27T12:50:29;99514.03;;;18.82;100.00
42859;BME280;28505;56.970;40.998;2023-04-27T12:55:51;99517.28;;;18.88;100.00
42859;BME280;28505;56.970;40.998;2023-04-27T13:01:14;99518.25;;;18.99;100.00
42859;BME280;28505;56.970;40.998;2023-04-27T13:06:36;99525.88;;;19.09;100.00
42859;BME280;28505;56.970;40.998;2023-04-27T13:11:59;99524.22;;;19.05;100.00
42859;BME280;28505;56.970;40.998;2023-04-27T13:17:21;99515.47;;;18.76;100.00
42859;BME280;28505;56.970;40.998;2023-04-27T13:22:44;99530.78;;;18.81;100.00
42859;BME280;28505;56.970;40.998;2023-04-27T13:28:06;99534.88;;;18.55;100.00
42859;BME280;28505;56.970;40.998;2023-04-27T13:33:28;99537.06;;;18.30;100.00
42859;BME280;28505;56.970;40.998;2023-04-27T13:38:50;99544.13;;;18.15;100.00
42859;BME280;28505;56.970;40.998;2023-04-27T13:44:13;99542.44;;;18.27;100.00
42859;BME280;28505;56.970;40.998;2023-04-27T13:49:36;99533.06;;;18.43;100.00
42859;BME280;28505;56.970;40.998;2023-04-27T13:54:58;99529.22;;;18.44;100.00
42859;BME280;28505;56.970;40.998;2023-04-27T14:00:22;99512.09;;;18.12;100.00
42859;BME280;28505;56.970;40.998;2023-04-27T14:05:44;99528.94;;;17.98;100.00
42859;BME280;28505;56.970;40.998;2023-04-27T14:11:11;99540.97;;;17.97;100.00
42859;BME280;28505;56.970;40.998;2023-04-27T14:16:33;99534.34;;;18.14;100.00
42859;BME280;28505;56.970;40.998;2023-04-27T14:21:56;99539.50;;;18.51;100.00
42859;BME280;28505;56.970;40.998;2023-04-27T14:27:19;99549.63;;;18.70;100.00
42859;BME280;28505;56.970;40.998;2023-04-27T14:32:41;99537.78;;;18.62;100.00
42859;BME280;28505;56.970;40.998;2023-04-27T14:38:04;99538.97;;;18.45;100.00
42859;BME280;28505;56.970;40.998;2023-04-27T14:43:26;99548.06;;;18.34;100.00
42859;BME280;28505;56.970;40.998;2023-04-27T14:48:48;99542.88;;;18.29;100.00
42859;BME280;28505;56.970;40.998;2023-04-27T14:54:12;99549.22;;;18.17;100.00
42859;BME280;28505;56.970;40.998;2023-04-27T14:59:34;99552.66;;;17.98;100.00
42859;BME280;28505;56.970;40.998;2023-04-27T15:04:56;99547.56;;;17.81;100.00
42859;BME280;28505;56.970;40.998;2023-04-27T15:10:18;99545.59;;;17.65;100.00
42859;BME280;28505;56.970;40.998;2023-04-27T15:15:41;99543.91;;;17.45;100.00
42859;BME280;28505;56.970;40.998;2023-04-27T15:21:06;99552.59;;;17.35;100.00
42859;BME280;28505;56.970;40.998;2023-04-27T15:26:27;99550.59;;;17.19;100.00
42859;BME280;28505;56.970;40.998;2023-04-27T15:31:49;99557.19;;;17.18;100.00
42859;BME280;28505;56.970;40.998;2023-04-27T15:37:12;99556.31;;;17.14;100.00
42859;BME280;28505;56.970;40.998;2023-04-27T15:42:40;99567.22;;;17.14;100.00
42859;BME280;28505;56.970;40.998;2023-04-27T15:48:10;99565.66;;;17.01;100.00
42859;BME280;28505;56.970;40.998;2023-04-27T15:53:38;99571.38;;;16.83;100.00
42859;BME280;28505;56.970;40.998;2023-04-27T15:59:00;99581.81;;;16.69;100.00
42859;BME280;28505;56.970;40.998;2023-04-27T16:04:22;99573.56;;;16.41;100.00
42859;BME280;28505;56.970;40.998;2023-04-27T16:09:45;99576.53;;;16.24;100.00
42859;BME280;28505;56.970;40.998;2023-04-27T16:15:07;99592.63;;;16.17;100.00
42859;BME280;28505;56.970;40.998;2023-04-27T16:20:31;99587.41;;;15.99;100.00
42859;BME280;28505;56.970;40.998;2023-04-27T16:25:56;99587.03;;;15.76;100.00
42859;BME280;28505;56.970;40.998;2023-04-27T16:31:18;99586.59;;;15.53;100.00
42859;BME280;28505;56.970;40.998;2023-04-27T16:36:44;99596.69;;;15.32;100.00
42859;BME280;28505;56.970;40.998;2023-04-27T16:42:10;99601.63;;;15.17;100.00
42859;BME280;28505;56.970;40.998;2023-04-27T16:47:35;99607.91;;;14.88;100.00
42859;BME280;28505;56.970;40.998;2023-04-27T16:53:07;99607.56;;;14.69;100.00
42859;BME280;28505;56.970;40.998;2023-04-27T16:58:30;99621.38;;;14.46;100.00
42859;BME280;28505;56.970;40.998;2023-04-27T17:03:59;99623.41;;;14.20;100.00
42859;BME280;28505;56.970;40.998;2023-04-27T17:09:24;99627.00;;;13.94;100.00
42859;BME280;28505;56.970;40.998;2023-04-27T17:14:46;99628.66;;;13.69;100.00
42859;BME280;28505;56.970;40.998;2023-04-27T17:20:48;99618.34;;;13.37;100.00
42859;BME280;28505;56.970;40.998;2023-04-27T17:26:12;99620.59;;;13.26;100.00
42859;BME280;28505;56.970;40.998;2023-04-27T17:31:49;99637.78;;;13.30;100.00
42859;BME280;28505;56.970;40.998;2023-04-27T17:37:19;99627.53;;;13.01;100.00
42859;BME280;28505;56.970;40.998;2023-04-27T17:42:48;99631.19;;;12.79;100.00
42859;BME280;28505;56.970;40.998;2023-04-27T17:48:14;99656.47;;;12.65;100.00
42859;BME280;28505;56.970;40.998;2023-04-27T17:53:46;99662.13;;;12.47;100.00
42859;BME280;28505;56.970;40.998;2023-04-27T17:59:14;99677.56;;;12.46;100.00
42859;BME280;28505;56.970;40.998;2023-04-27T18:04:39;99662.03;;;12.29;100.00
42859;BME280;28505;56.970;40.998;2023-04-27T18:10:05;99670.66;;;12.31;100.00
42859;BME280;28505;56.970;40.998;2023-04-27T18:15:32;99662.50;;;12.23;100.00
42859;BME280;28505;56.970;40.998;2023-04-27T18:20:57;99686.06;;;12.31;100.00
42859;BME280;28505;56.970;40.998;2023-04-27T18:26:23;99687.00;;;12.26;100.00
42859;BME280;28505;56.970;40.998;2023-04-27T18:31:50;99677.28;;;12.25;100.00
42859;BME280;28505;56.970;40.998;2023-04-27T18:37:16;99669.16;;;12.16;100.00
42859;BME280;28505;56.970;40.998;2023-04-27T18:42:40;99684.59;;;12.25;100.00
42859;BME280;28505;56.970;40.998;2023-04-27T18:48:06;99683.31;;;12.22;100.00
42859;BME280;28505;56.970;40.998;2023-04-27T18:53:32;99679.16;;;12.16;100.00
42859;BME280;28505;56.970;40.998;2023-04-27T18:58:57;99671.19;;;12.11;100.00
42859;BME280;28505;56.970;40.998;2023-04-27T19:04:24;99665.38;;;11.95;100.00
42859;BME280;28505;56.970;40.998;2023-04-27T19:09:51;99673.50;;;11.95;100.00
42859;BME280;28505;56.970;40.998;2023-04-27T19:15:19;99672.81;;;11.89;100.00
42859;BME280;28505;56.970;40.998;2023-04-27T19:20:46;99654.06;;;11.70;100.00
42859;BME280;28505;56.970;40.998;2023-04-27T19:26:13;99652.38;;;11.75;100.00
42859;BME280;28505;56.970;40.998;2023-04-27T19:31:39;99661.81;;;11.86;100.00
42859;BME280;28505;56.970;40.998;2023-04-27T19:37:03;99647.31;;;11.82;100.00
42859;BME280;28505;56.970;40.998;2023-04-27T19:42:29;99662.94;;;11.85;100.00
42859;BME280;28505;56.970;40.998;2023-04-27T19:47:57;99667.34;;;11.81;100.00
42859;BME280;28505;56.970;40.998;2023-04-27T19:53:26;99657.88;;;11.69;100.00
42859;BME280;28505;56.970;40.998;2023-04-27T19:58:54;99685.13;;;11.82;100.00
42859;BME280;28505;56.970;40.998;2023-04-27T20:04:19;99670.91;;;11.67;100.00
42859;BME280;28505;56.970;40.998;2023-04-27T20:09:44;99678.38;;;11.70;100.00
42859;BME280;28505;56.970;40.998;2023-04-27T20:15:09;99686.72;;;11.83;100.00
42859;BME280;28505;56.970;40.998;2023-04-27T20:20:34;99688.34;;;11.84;100.00
42859;BME280;28505;56.970;40.998;2023-04-27T20:25:58;99696.53;;;11.79;100.00
42859;BME280;28505;56.970;40.998;2023-04-27T20:31:22;99688.09;;;11.71;100.00
42859;BME280;28505;56.970;40.998;2023-04-27T20:36:46;99698.38;;;11.69;100.00
42859;BME280;28505;56.970;40.998;2023-04-27T20:42:09;99705.50;;;11.65;100.00
42859;BME280;28505;56.970;40.998;2023-04-27T20:47:35;99699.25;;;11.56;100.00
42859;BME280;28505;56.970;40.998;2023-04-27T20:52:59;99699.47;;;11.46;100.00
42859;BME280;28505;56.970;40.998;2023-04-27T20:58:23;99680.69;;;11.41;100.00
42859;BME280;28505;56.970;40.998;2023-04-27T21:03:47;99700.78;;;11.48;100.00
42859;BME280;28505;56.970;40.998;2023-04-27T21:09:11;99708.28;;;11.38;100.00
42859;BME280;28505;56.970;40.998;2023-04-27T21:14:34;99716.63;;;11.28;100.00
42859;BME280;28505;56.970;40.998;2023-04-27T21:20:00;99701.97;;;11.06;100.00
42859;BME280;28505;56.970;40.998;2023-04-27T21:25:25;99685.91;;;10.87;100.00
42859;BME280;28505;56.970;40.998;2023-04-27T21:30:50;99701.00;;;10.88;100.00
42859;BME280;28505;56.970;40.998;2023-04-27T21:36:14;99704.63;;;10.70;100.00
42859;BME280;28505;56.970;40.998;2023-04-27T21:41:39;99707.28;;;10.56;100.00
42859;BME280;28505;56.970;40.998;2023-04-27T21:47:04;99700.91;;;10.38;100.00
42859;BME280;28505;56.970;40.998;2023-04-27T21:52:29;99689.78;;;10.26;100.00
42859;BME280;28505;56.970;40.998;2023-04-27T21:57:53;99696.34;;;10.20;100.00
42859;BME280;28505;56.970;40.998;2023-04-27T22:03:17;99699.94;;;10.15;100.00
42859;BME280;28505;56.970;40.998;2023-04-27T22:08:44;99712.59;;;10.15;100.00
42859;BME280;28505;56.970;40.998;2023-04-27T22:14:09;99695.50;;;9.92;100.00
42859;BME280;28505;56.970;40.998;2023-04-27T22:19:33;99699.94;;;9.82;100.00
42859;BME280;28505;56.970;40.998;2023-04-27T22:24:58;99712.09;;;9.80;100.00
42859;BME280;28505;56.970;40.998;2023-04-27T22:30:24;99709.94;;;9.63;100.00
42859;BME280;28505;56.970;40.998;2023-04-27T22:35:49;99704.88;;;9.43;100.00
42859;BME280;28505;56.970;40.998;2023-04-27T22:41:14;99716.06;;;9.50;100.00
42859;BME280;28505;56.970;40.998;2023-04-27T22:46:42;99711.56;;;9.45;100.00
42859;BME280;28505;56.970;40.998;2023-04-27T22:52:06;99711.25;;;9.47;100.00
42859;BME280;28505;56.970;40.998;2023-04-27T22:57:31;99709.47;;;9.42;100.00
42859;BME280;28505;56.970;40.998;2023-04-27T23:02:54;99696.16;;;9.32;100.00
42859;BME280;28505;56.970;40.998;2023-04-27T23:08:19;99699.41;;;9.29;100.00
42859;BME280;28505;56.970;40.998;2023-04-27T23:14:10;99717.88;;;9.35;100.00
42859;BME280;28505;56.970;40.998;2023-04-27T23:19:33;99709.44;;;9.23;100.00
42859;BME280;28505;56.970;40.998;2023-04-27T23:24:55;99716.28;;;9.16;100.00
42859;BME280;28505;56.970;40.998;2023-04-27T23:30:17;99708.31;;;9.05;100.00
42859;BME280;28505;56.970;40.998;2023-04-27T23:35:40;99713.47;;;9.02;100.00
42859;BME280;28505;56.970;40.998;2023-04-27T23:41:02;99715.28;;;8.87;100.00
42859;BME280;28505;56.970;40.998;2023-04-27T23:46:25;99721.22;;;8.84;100.00
42859;BME280;28505;56.970;40.998;2023-04-27T23:51:47;99725.00;;;8.83;100.00
42859;BME280;28505;56.970;40.998;2023-04-27T23:57:10;99732.56;;;8.81;100.00
